Time;durP1;ratioP1;P1;durP2;ratioP2;P2;SDS_P1;SDS_P2;PMS_P1;PMS_P2;Temp;Humidity;BMP_temperature;BMP_pressure;BME280_temperature;BME280_humidity;BME280_pressure;Samples;Min_cycle;Max_cycle;Signal;HPM_P1;HPM_P2
2023/11/21 00:02:21;;;;;;;0.90;0.85;;;9.80;99.90;;;;;;5063808;28;20068;-81
2023/11/21 00:04:48;;;;;;;0.10;0.10;;;9.70;99.90;;;;;;5052783;28;20102;-80
2023/11/21 00:07:14;;;;;;;0.10;0.10;;;9.90;99.90;;;;;;5047325;28;20111;-80
2023/11/21 00:09:41;;;;;;;0.30;0.30;;;9.80;99.90;;;;;;5046486;28;20068;-81
2023/11/21 00:12:09;;;;;;;0.10;0.10;;;9.80;99.90;;;;;;5045837;28;20128;-80
2023/11/21 00:14:39;;;;;;;0.52;0.52;;;9.70;99.90;;;;;;5047255;28;20683;-79
2023/11/21 00:17:05;;;;;;;0.10;0.10;;;9.70;99.90;;;;;;5050905;28;20029;-79
2023/11/21 00:19:31;;;;;;;0.10;0.10;;;9.70;99.90;;;;;;5046828;28;20021;-79
2023/11/21 00:21:57;;;;;;;0.00;0.00;;;9.80;99.90;;;;;;5045661;28;20033;-79
2023/11/21 00:24:24;;;;;;;0.10;0.10;;;9.90;99.90;;;;;;5042900;28;20098;-79
2023/11/21 00:26:50;;;;;;;0.10;0.10;;;10.00;99.90;;;;;;5053906;28;20033;-79
2023/11/21 00:29:17;;;;;;;0.10;0.10;;;9.80;99.90;;;;;;5047466;28;20037;-79
2023/11/21 00:31:43;;;;;;;0.10;0.10;;;9.70;99.90;;;;;;5048869;28;20514;-79
2023/11/21 00:34:11;;;;;;;0.00;0.00;;;9.70;99.90;;;;;;5048671;28;20797;-79
2023/11/21 00:36:37;;;;;;;0.10;0.10;;;9.80;99.90;;;;;;5044740;28;20043;-78
2023/11/21 00:39:03;;;;;;;0.10;0.10;;;9.80;99.90;;;;;;5054834;28;20025;-78
2023/11/21 00:41:29;;;;;;;0.35;0.30;;;9.60;99.90;;;;;;5047597;28;20116;-77
2023/11/21 00:43:55;;;;;;;0.00;0.00;;;9.60;99.90;;;;;;5050687;28;20166;-79
2023/11/21 00:46:21;;;;;;;0.45;0.38;;;9.50;99.90;;;;;;5053169;28;20036;-77
2023/11/21 00:48:46;;;;;;;0.08;0.08;;;9.50;99.90;;;;;;5046906;28;20028;-77
2023/11/21 00:51:12;;;;;;;0.17;0.17;;;9.50;99.90;;;;;;5051346;28;20041;-78
2023/11/21 00:53:38;;;;;;;0.00;0.00;;;9.50;99.90;;;;;;5051158;28;20029;-77
2023/11/21 00:56:04;;;;;;;0.22;0.22;;;9.40;99.90;;;;;;5049353;28;20033;-77
2023/11/21 00:58:30;;;;;;;0.10;0.10;;;9.40;99.90;;;;;;5048626;28;20029;-77
2023/11/21 01:00:56;;;;;;;1.23;1.23;;;9.40;99.90;;;;;;5053686;28;20028;-78
2023/11/21 01:03:21;;;;;;;0.10;0.10;;;9.40;99.90;;;;;;5050993;28;20077;-77
2023/11/21 01:05:49;;;;;;;0.30;0.30;;;9.50;99.90;;;;;;5045296;28;20445;-78
2023/11/21 01:08:15;;;;;;;0.10;0.10;;;9.50;99.90;;;;;;5046786;28;20089;-79
2023/11/21 01:10:41;;;;;;;0.10;0.10;;;9.50;99.90;;;;;;5064412;28;20612;-78
2023/11/21 01:13:07;;;;;;;0.10;0.10;;;9.40;99.90;;;;;;5058631;28;20060;-79
2023/11/21 01:15:33;;;;;;;1.33;1.23;;;9.50;99.90;;;;;;5045122;28;20028;-78
2023/11/21 01:17:59;;;;;;;0.10;0.10;;;9.40;99.90;;;;;;5054917;28;20504;-78
2023/11/21 01:20:26;;;;;;;0.10;0.10;;;9.30;99.90;;;;;;5055821;28;20052;-77
2023/11/21 01:22:53;;;;;;;0.10;0.10;;;9.30;99.90;;;;;;5045907;28;20029;-78
2023/11/21 01:25:20;;;;;;;0.15;0.15;;;9.40;99.90;;;;;;5048707;28;20033;-78
2023/11/21 01:27:47;;;;;;;0.10;0.10;;;9.40;99.90;;;;;;5044023;28;20017;-78
2023/11/21 01:30:13;;;;;;;0.20;0.20;;;9.40;99.90;;;;;;5046043;28;20059;-78
2023/11/21 01:32:39;;;;;;;0.08;0.08;;;9.40;99.90;;;;;;5045761;28;20053;-77
2023/11/21 01:35:09;;;;;;;0.10;0.10;;;9.40;99.90;;;;;;5050830;28;20158;-78
2023/11/21 01:37:35;;;;;;;0.10;0.10;;;9.30;99.90;;;;;;5047532;28;20037;-78
2023/11/21 01:40:02;;;;;;;0.10;0.10;;;9.30;99.90;;;;;;5043810;28;20036;-77
2023/11/21 01:42:29;;;;;;;0.10;0.10;;;9.30;99.90;;;;;;5045399;28;20715;-77
2023/11/21 01:44:55;;;;;;;;;;;9.30;99.90;;;;;;5049411;28;20040;-77
2023/11/21 01:47:21;;;;;;;0.10;0.10;;;9.20;99.90;;;;;;5045586;28;19912;-77
2023/11/21 01:49:48;;;;;;;0.10;0.10;;;9.20;99.90;;;;;;5049804;28;20907;-77
2023/11/21 01:52:14;;;;;;;;;;;9.30;99.90;;;;;;5047635;28;20887;-78
2023/11/21 01:54:42;;;;;;;0.10;0.10;;;9.20;99.90;;;;;;5051114;28;20400;-77
2023/11/21 01:57:08;;;;;;;0.10;0.10;;;9.30;99.90;;;;;;5049877;28;20037;-78
2023/11/21 01:59:37;;;;;;;0.10;0.10;;;9.30;99.90;;;;;;5046117;28;20028;-80
2023/11/21 02:02:06;;;;;;;0.10;0.10;;;9.30;99.90;;;;;;5044067;28;20040;-79
2023/11/21 02:04:36;;;;;;;0.20;0.20;;;9.40;99.90;;;;;;5046183;28;20025;-79
2023/11/21 02:07:05;;;;;;;0.10;0.10;;;9.40;99.90;;;;;;5056321;28;20029;-79
2023/11/21 02:09:34;;;;;;;0.10;0.10;;;9.40;99.90;;;;;;5044721;28;20638;-79
2023/11/21 02:12:00;;;;;;;0.10;0.10;;;9.50;99.90;;;;;;5045438;28;20482;-79
2023/11/21 02:14:27;;;;;;;0.10;0.10;;;9.60;99.90;;;;;;5046236;28;20904;-77
2023/11/21 02:16:54;;;;;;;0.00;0.00;;;9.50;99.90;;;;;;5054948;28;20033;-78
2023/11/21 02:19:25;;;;;;;0.00;0.00;;;9.60;99.90;;;;;;5046599;28;20057;-78
2023/11/21 02:21:52;;;;;;;0.00;0.00;;;9.50;99.90;;;;;;5045941;28;20029;-78
2023/11/21 02:24:22;;;;;;;0.00;0.00;;;9.40;99.90;;;;;;5044552;28;20099;-77
2023/11/21 02:26:51;;;;;;;0.10;0.10;;;9.40;99.90;;;;;;5051287;28;20037;-78
2023/11/21 02:29:27;;;;;;;0.10;0.10;;;9.40;99.90;;;;;;5052494;28;20024;-77
2023/11/21 02:31:54;;;;;;;0.05;0.05;;;9.40;99.90;;;;;;5054238;28;20758;-77
2023/11/21 02:34:21;;;;;;;0.10;0.10;;;9.50;99.90;;;;;;5050373;28;20424;-78
2023/11/21 02:36:49;;;;;;;;;;;9.50;99.90;;;;;;5057596;28;20037;-78
2023/11/21 02:39:16;;;;;;;0.05;0.05;;;9.40;99.90;;;;;;5048975;28;19913;-77
2023/11/21 02:41:42;;;;;;;;;;;9.40;99.90;;;;;;5050084;28;20049;-78
2023/11/21 02:44:08;;;;;;;0.10;0.10;;;9.50;99.90;;;;;;5055200;28;19912;-78
2023/11/21 02:46:34;;;;;;;0.00;0.00;;;9.30;99.90;;;;;;5048513;28;20036;-78
2023/11/21 02:49:03;;;;;;;0.10;0.10;;;9.30;99.90;;;;;;5048674;28;20937;-78
2023/11/21 02:51:30;;;;;;;0.10;0.10;;;9.30;99.90;;;;;;5049880;28;20060;-78
2023/11/21 02:54:02;;;;;;;0.00;0.00;;;9.30;99.90;;;;;;5048719;28;20029;-78
2023/11/21 02:56:28;;;;;;;0.00;0.00;;;9.40;99.90;;;;;;5047883;28;20051;-78
2023/11/21 02:58:57;;;;;;;0.00;0.00;;;9.30;99.90;;;;;;5046577;28;20032;-78
2023/11/21 03:01:24;;;;;;;0.00;0.00;;;9.30;99.90;;;;;;5046911;28;20508;-78
2023/11/21 03:03:51;;;;;;;0.10;0.10;;;9.30;99.90;;;;;;5048598;28;20031;-77
2023/11/21 03:06:17;;;;;;;0.20;0.20;;;9.30;99.90;;;;;;5053772;28;20839;-77
2023/11/21 03:08:43;;;;;;;0.10;0.10;;;9.30;99.90;;;;;;5050997;28;20039;-77
2023/11/21 03:11:09;;;;;;;0.10;0.10;;;9.30;99.90;;;;;;5055642;28;20029;-77
2023/11/21 03:13:34;;;;;;;0.10;0.10;;;9.30;99.90;;;;;;5044619;28;20059;-77
2023/11/21 03:16:00;;;;;;;0.10;0.10;;;9.40;99.90;;;;;;5047443;28;20536;-77
2023/11/21 03:18:26;;;;;;;0.00;0.00;;;9.30;99.90;;;;;;5049439;28;20079;-78
2023/11/21 03:20:54;;;;;;;0.10;0.10;;;9.40;99.90;;;;;;5055498;28;20518;-78
2023/11/21 03:23:20;;;;;;;0.10;0.10;;;9.50;99.90;;;;;;5040334;28;20033;-77
2023/11/21 03:25:45;;;;;;;0.10;0.10;;;9.40;99.90;;;;;;5047119;28;20136;-79
2023/11/21 03:28:11;;;;;;;0.10;0.10;;;9.40;99.90;;;;;;5055503;28;20083;-78
2023/11/21 03:30:37;;;;;;;0.10;0.10;;;9.30;99.90;;;;;;5047207;28;20037;-79
2023/11/21 03:33:02;;;;;;;1.25;1.25;;;9.40;99.90;;;;;;5047043;28;20021;-77
2023/11/21 03:35:28;;;;;;;0.10;0.10;;;9.30;99.90;;;;;;5048567;28;20033;-77
2023/11/21 03:37:54;;;;;;;0.10;0.10;;;9.30;99.90;;;;;;5049459;28;20044;-78
2023/11/21 03:40:21;;;;;;;0.10;0.10;;;9.20;99.90;;;;;;5046773;28;20021;-77
2023/11/21 03:42:47;;;;;;;0.10;0.10;;;9.30;99.90;;;;;;5053248;28;20469;-77
2023/11/21 03:45:14;;;;;;;0.20;0.20;;;9.20;99.90;;;;;;5046515;28;20044;-78
2023/11/21 03:47:42;;;;;;;0.10;0.10;;;9.30;99.90;;;;;;5041388;28;20043;-78
2023/11/21 03:50:09;;;;;;;0.10;0.10;;;9.30;99.90;;;;;;5047355;28;20025;-78
2023/11/21 03:52:35;;;;;;;0.10;0.10;;;9.30;99.90;;;;;;5047218;28;20135;-78
2023/11/21 03:55:01;;;;;;;0.10;0.10;;;9.40;99.90;;;;;;5047564;28;20120;-79
2023/11/21 03:57:27;;;;;;;0.10;0.10;;;9.30;99.90;;;;;;5048173;28;20508;-78
2023/11/21 03:59:53;;;;;;;0.10;0.10;;;9.40;99.90;;;;;;5047337;28;20443;-79
2023/11/21 04:02:19;;;;;;;4.57;1.90;;;9.40;99.90;;;;;;5045320;28;20017;-78
2023/11/21 04:04:45;;;;;;;0.10;0.10;;;9.50;99.90;;;;;;5047198;28;20036;-78
2023/11/21 04:07:13;;;;;;;0.10;0.10;;;9.50;99.90;;;;;;5053781;28;20020;-78
2023/11/21 04:09:39;;;;;;;0.10;0.10;;;9.50;99.90;;;;;;5045488;28;20032;-77
2023/11/21 04:12:05;;;;;;;0.10;0.10;;;9.50;99.90;;;;;;5051302;28;20749;-78
2023/11/21 04:14:32;;;;;;;0.10;0.10;;;9.40;99.90;;;;;;5047344;28;20036;-81
2023/11/21 04:16:57;;;;;;;;;;;9.50;99.90;;;;;;5047267;28;20033;-81
2023/11/21 04:19:23;;;;;;;0.00;0.00;;;9.50;99.90;;;;;;5047495;28;19913;-79
2023/11/21 04:21:49;;;;;;;0.10;0.10;;;9.50;99.90;;;;;;5048424;28;20028;-78
2023/11/21 04:24:14;;;;;;;0.00;0.00;;;9.50;99.90;;;;;;5038319;28;20025;-79
2023/11/21 04:26:40;;;;;;;0.10;0.10;;;9.50;99.90;;;;;;5046219;28;21214;-77
2023/11/21 04:29:06;;;;;;;0.00;0.00;;;9.60;99.90;;;;;;5046102;28;20036;-77
2023/11/21 04:31:31;;;;;;;0.10;0.10;;;9.60;99.90;;;;;;5046250;28;20025;-79
2023/11/21 04:33:57;;;;;;;0.00;0.00;;;9.60;99.90;;;;;;5045235;28;20033;-78
2023/11/21 04:36:23;;;;;;;0.10;0.10;;;9.70;99.90;;;;;;5046336;28;20020;-77
2023/11/21 04:38:48;;;;;;;0.10;0.10;;;9.80;99.90;;;;;;5046876;28;20939;-77
2023/11/21 04:41:14;;;;;;;0.10;0.10;;;9.80;99.90;;;;;;5047136;28;20032;-77
2023/11/21 04:43:40;;;;;;;0.10;0.10;;;9.80;99.90;;;;;;5051514;28;20036;-78
2023/11/21 04:46:06;;;;;;;0.10;0.10;;;9.80;99.90;;;;;;5047261;28;20713;-77
2023/11/21 04:48:32;;;;;;;0.10;0.10;;;9.80;99.90;;;;;;5052412;28;20025;-77
2023/11/21 04:50:58;;;;;;;0.00;0.00;;;9.90;99.90;;;;;;5047500;28;20059;-78
2023/11/21 04:53:24;;;;;;;0.00;0.00;;;9.90;99.90;;;;;;5045895;28;20036;-78
2023/11/21 04:55:50;;;;;;;0.00;0.00;;;9.90;99.90;;;;;;5047136;28;20033;-78
2023/11/21 04:58:15;;;;;;;0.67;0.67;;;9.90;99.90;;;;;;5049100;28;20025;-76
2023/11/21 05:00:41;;;;;;;0.10;0.10;;;9.90;99.90;;;;;;5052028;28;20020;-77
2023/11/21 05:03:07;;;;;;;0.10;0.10;;;9.80;99.90;;;;;;5050748;28;20110;-77
2023/11/21 05:05:36;;;;;;;0.10;0.10;;;9.80;99.90;;;;;;5046072;28;20492;-77
2023/11/21 05:08:02;;;;;;;0.10;0.10;;;9.80;99.90;;;;;;5044582;28;20587;-77
2023/11/21 05:10:29;;;;;;;0.00;0.00;;;9.80;99.90;;;;;;5057592;28;20025;-76
2023/11/21 05:12:55;;;;;;;0.10;0.10;;;9.70;99.90;;;;;;5045837;28;20025;-77
2023/11/21 05:15:21;;;;;;;0.10;0.10;;;9.80;99.90;;;;;;5046327;28;20063;-76
2023/11/21 05:17:52;;;;;;;0.10;0.10;;;9.90;99.90;;;;;;5041809;28;20578;-77
2023/11/21 05:20:20;;;;;;;0.10;0.10;;;9.90;99.90;;;;;;5049585;28;20267;-77
2023/11/21 05:22:48;;;;;;;0.00;0.00;;;9.80;99.90;;;;;;5052455;28;20573;-77
2023/11/21 05:25:14;;;;;;;0.10;0.10;;;9.80;99.90;;;;;;5046478;28;20119;-77
2023/11/21 05:27:39;;;;;;;0.00;0.00;;;9.90;99.90;;;;;;5046457;28;20100;-77
2023/11/21 05:30:06;;;;;;;0.10;0.10;;;9.80;99.90;;;;;;5050654;28;20110;-77
2023/11/21 05:32:33;;;;;;;0.08;0.08;;;9.90;99.90;;;;;;5049611;28;20057;-77
2023/11/21 05:34:59;;;;;;;;;;;9.80;99.90;;;;;;5044348;28;20032;-78
2023/11/21 05:37:26;;;;;;;0.07;0.07;;;9.80;99.90;;;;;;5046927;28;19913;-76
2023/11/21 05:39:53;;;;;;;0.10;0.10;;;9.80;99.90;;;;;;5044747;28;20025;-79
2023/11/21 05:42:19;;;;;;;0.10;0.10;;;9.70;99.90;;;;;;5041021;28;20044;-79
2023/11/21 05:44:44;;;;;;;0.10;0.10;;;9.70;99.90;;;;;;5043911;28;20742;-78
2023/11/21 05:47:10;;;;;;;0.00;0.00;;;9.70;99.90;;;;;;5032178;28;20271;-81
2023/11/21 05:49:36;;;;;;;0.00;0.00;;;9.60;99.90;;;;;;5041675;28;20033;-80
2023/11/21 05:52:02;;;;;;;0.08;0.08;;;9.50;99.90;;;;;;5045998;28;20013;-78
2023/11/21 05:54:28;;;;;;;5.43;3.30;;;9.50;99.90;;;;;;5045933;28;20098;-78
2023/11/21 05:56:54;;;;;;;0.10;0.10;;;9.50;99.90;;;;;;5042956;28;20037;-77
2023/11/21 05:59:20;;;;;;;0.10;0.10;;;9.50;99.90;;;;;;5048429;28;20025;-78
2023/11/21 06:01:46;;;;;;;0.00;0.00;;;9.50;99.90;;;;;;5048680;28;20492;-76
2023/11/21 06:04:12;;;;;;;0.10;0.10;;;9.50;99.90;;;;;;5040035;28;20032;-76
2023/11/21 06:06:38;;;;;;;0.10;0.10;;;9.40;99.90;;;;;;5047294;28;20595;-76
2023/11/21 06:09:05;;;;;;;0.10;0.10;;;9.60;99.90;;;;;;5047736;28;20119;-76
2023/11/21 06:11:31;;;;;;;0.10;0.10;;;9.60;99.90;;;;;;5044693;28;20029;-77
2023/11/21 06:13:57;;;;;;;0.00;0.00;;;9.60;99.90;;;;;;5048873;28;20039;-76
2023/11/21 06:16:24;;;;;;;0.40;0.40;;;9.60;99.90;;;;;;5041426;28;20036;-76
2023/11/21 06:18:49;;;;;;;0.75;0.70;;;9.50;99.90;;;;;;5044068;28;20025;-78
2023/11/21 06:21:16;;;;;;;0.00;0.00;;;9.60;99.90;;;;;;5048839;28;20027;-78
2023/11/21 06:23:42;;;;;;;;;;;9.60;99.90;;;;;;5044702;28;20799;-80
2023/11/21 06:26:09;;;;;;;0.10;0.10;;;9.50;99.90;;;;;;5046976;28;19919;-78
2023/11/21 06:28:35;;;;;;;0.00;0.00;;;9.60;99.90;;;;;;5048908;28;20025;-78
2023/11/21 06:31:04;;;;;;;0.10;0.10;;;9.60;99.90;;;;;;5044139;28;20060;-78
2023/11/21 06:33:31;;;;;;;1.33;1.23;;;9.60;99.90;;;;;;5046739;28;20082;-78
2023/11/21 06:35:57;;;;;;;1.77;1.67;;;9.70;99.90;;;;;;5045661;28;20044;-79
2023/11/21 06:38:22;;;;;;;0.10;0.10;;;9.70;99.90;;;;;;5048386;28;20033;-80
2023/11/21 06:40:48;;;;;;;0.10;0.10;;;9.70;99.90;;;;;;5043841;28;20706;-79
2023/11/21 06:43:14;;;;;;;0.00;0.00;;;9.60;99.90;;;;;;5040771;28;20049;-79
2023/11/21 06:45:40;;;;;;;0.10;0.10;;;9.70;99.90;;;;;;5050153;28;20871;-80
2023/11/21 06:48:05;;;;;;;0.10;0.10;;;9.70;99.90;;;;;;5039724;28;20040;-79
2023/11/21 06:50:31;;;;;;;0.10;0.10;;;9.80;99.90;;;;;;5044856;28;20052;-77
2023/11/21 06:52:57;;;;;;;0.10;0.10;;;9.80;99.90;;;;;;5046816;28;20028;-79
2023/11/21 06:55:22;;;;;;;0.08;0.08;;;9.90;99.90;;;;;;5038245;28;20025;-78
2023/11/21 06:57:48;;;;;;;0.00;0.00;;;9.90;99.90;;;;;;5048483;28;20064;-78
2023/11/21 07:00:17;;;;;;;0.00;0.00;;;9.80;99.90;;;;;;5038443;28;20033;-79
2023/11/21 07:02:43;;;;;;;0.00;0.00;;;9.80;99.90;;;;;;5036325;28;20522;-78
2023/11/21 07:05:09;;;;;;;0.00;0.00;;;9.90;99.90;;;;;;5049028;28;20049;-82
2023/11/21 07:07:36;;;;;;;0.03;0.03;;;9.90;99.90;;;;;;5047775;28;20547;-80
2023/11/21 07:10:03;;;;;;;0.20;0.20;;;9.90;99.90;;;;;;5041132;28;20025;-80
2023/11/21 07:12:32;;;;;;;0.55;0.55;;;9.80;99.90;;;;;;5041834;28;20029;-79
2023/11/21 07:14:58;;;;;;;0.15;0.15;;;9.80;99.90;;;;;;5046368;28;20127;-80
2023/11/21 07:17:24;;;;;;;0.10;0.10;;;9.70;99.90;;;;;;5032944;28;20036;-79
2023/11/21 07:19:49;;;;;;;0.10;0.10;;;9.90;99.90;;;;;;5040394;28;20025;-78
2023/11/21 07:22:21;;;;;;;0.10;0.10;;;10.00;99.90;;;;;;5048870;28;20502;-78
2023/11/21 07:24:50;;;;;;;0.10;0.10;;;10.00;99.90;;;;;;5048242;28;20115;-79
2023/11/21 07:27:15;;;;;;;0.10;0.10;;;10.10;99.90;;;;;;5047908;28;20035;-79
2023/11/21 07:29:41;;;;;;;0.10;0.10;;;10.00;99.90;;;;;;5047114;28;20523;-79
2023/11/21 07:32:09;;;;;;;0.00;0.00;;;9.80;99.90;;;;;;5041892;28;20033;-78
2023/11/21 07:34:34;;;;;;;2.20;0.88;;;9.80;99.90;;;;;;5048446;28;20036;-79
2023/11/21 07:37:00;;;;;;;0.10;0.10;;;9.90;99.90;;;;;;5042763;28;20034;-79
2023/11/21 07:39:26;;;;;;;0.10;0.10;;;9.90;99.90;;;;;;5048423;28;20031;-79
2023/11/21 07:41:51;;;;;;;0.10;0.10;;;10.00;99.90;;;;;;5039477;28;20033;-80
2023/11/21 07:44:17;;;;;;;0.10;0.10;;;10.00;99.90;;;;;;5048211;28;20067;-79
2023/11/21 07:46:44;;;;;;;0.10;0.10;;;10.00;99.90;;;;;;5048384;28;20035;-80
2023/11/21 07:49:09;;;;;;;0.00;0.00;;;10.00;99.90;;;;;;5048383;28;20033;-80
2023/11/21 07:51:35;;;;;;;0.10;0.10;;;10.00;99.90;;;;;;5050109;28;20017;-79
2023/11/21 07:54:01;;;;;;;0.20;0.20;;;10.00;99.90;;;;;;5053539;28;20033;-79
2023/11/21 07:56:27;;;;;;;0.05;0.05;;;10.00;99.90;;;;;;5047026;28;20397;-79
2023/11/21 07:58:52;;;;;;;0.03;0.03;;;10.10;99.90;;;;;;5039409;28;20025;-79
2023/11/21 08:01:18;;;;;;;0.10;0.10;;;9.90;99.90;;;;;;5046021;28;20033;-79
2023/11/21 08:03:44;;;;;;;0.00;0.00;;;10.10;99.90;;;;;;5048141;28;20033;-80
2023/11/21 08:06:09;;;;;;;0.08;0.08;;;10.10;99.90;;;;;;5048198;28;20032;-80
2023/11/21 08:08:35;;;;;;;0.00;0.00;;;10.20;99.90;;;;;;5047537;28;20029;-79
2023/11/21 08:11:03;;;;;;;0.10;0.10;;;10.20;99.90;;;;;;5047449;28;20024;-79
2023/11/21 08:13:32;;;;;;;0.00;0.00;;;10.30;99.90;;;;;;5045890;28;20029;-79
2023/11/21 08:16:03;;;;;;;0.10;0.10;;;10.40;99.90;;;;;;5047480;28;20508;-80
2023/11/21 08:18:32;;;;;;;0.10;0.10;;;10.50;99.90;;;;;;5046954;28;20021;-80
2023/11/21 08:20:57;;;;;;;0.00;0.00;;;10.60;99.90;;;;;;5050092;28;20061;-79
2023/11/21 08:23:26;;;;;;;0.00;0.00;;;10.70;99.90;;;;;;5045832;28;20040;-80
2023/11/21 08:25:52;;;;;;;0.00;0.00;;;10.70;99.90;;;;;;5046193;28;20055;-79
2023/11/21 08:28:19;;;;;;;0.10;0.10;;;10.80;99.90;;;;;;5047382;28;20082;-79
2023/11/21 08:30:45;;;;;;;0.00;0.00;;;10.80;99.90;;;;;;5047815;28;20048;-80
2023/11/21 08:33:11;;;;;;;0.00;0.00;;;10.80;99.90;;;;;;5047422;28;20032;-79
2023/11/21 08:35:37;;;;;;;0.00;0.00;;;10.80;99.90;;;;;;5046538;28;20025;-79
2023/11/21 08:38:03;;;;;;;0.10;0.10;;;10.70;99.90;;;;;;5047474;28;20039;-80
2023/11/21 08:40:29;;;;;;;0.00;0.00;;;10.70;99.90;;;;;;5047624;28;20029;-80
2023/11/21 08:42:55;;;;;;;0.00;0.00;;;10.70;99.90;;;;;;5046542;28;20045;-80
2023/11/21 08:45:22;;;;;;;0.10;0.10;;;10.70;99.90;;;;;;5047601;28;20110;-80
2023/11/21 08:47:48;;;;;;;0.10;0.10;;;10.70;99.90;;;;;;5047001;28;20047;-80
2023/11/21 08:50:14;;;;;;;0.10;0.10;;;10.80;99.90;;;;;;5046516;28;20112;-80
2023/11/21 08:52:41;;;;;;;0.00;0.00;;;10.70;99.90;;;;;;5057357;28;20027;-80
2023/11/21 08:55:08;;;;;;;0.10;0.10;;;10.80;99.90;;;;;;5045829;28;20090;-80
2023/11/21 08:57:35;;;;;;;0.00;0.00;;;11.00;99.90;;;;;;5040539;28;20777;-80
2023/11/21 09:00:01;;;;;;;;;;;11.00;99.90;;;;;;5047226;28;20091;-80
2023/11/21 09:02:26;;;;;;;0.00;0.00;;;11.00;99.90;;;;;;5046866;28;19905;-80
2023/11/21 09:04:52;;;;;;;0.00;0.00;;;11.00;99.90;;;;;;5047175;28;20061;-80
2023/11/21 09:07:21;;;;;;;0.10;0.10;;;11.00;99.90;;;;;;5046312;28;20106;-80
2023/11/21 09:09:47;;;;;;;0.00;0.00;;;11.10;99.90;;;;;;5045803;28;20041;-81
2023/11/21 09:12:14;;;;;;;0.00;0.00;;;11.10;99.90;;;;;;5046212;28;20024;-81
2023/11/21 09:14:39;;;;;;;0.00;0.00;;;11.10;99.90;;;;;;5048436;28;20043;-81
2023/11/21 09:17:10;;;;;;;0.10;0.10;;;11.10;99.90;;;;;;5046710;28;20283;-81
2023/11/21 09:19:40;;;;;;;0.10;0.10;;;11.10;99.90;;;;;;5046615;28;20033;-81
2023/11/21 09:22:07;;;;;;;0.00;0.00;;;11.10;99.90;;;;;;5047255;28;20025;-80
2023/11/21 09:24:35;;;;;;;0.10;0.10;;;11.20;99.90;;;;;;5047847;28;20036;-81
2023/11/21 09:27:01;;;;;;;0.00;0.00;;;11.10;99.90;;;;;;5047625;28;20599;-81
2023/11/21 09:29:27;;;;;;;0.10;0.10;;;11.10;99.90;;;;;;5047497;28;20033;-80
2023/11/21 09:31:54;;;;;;;0.00;0.00;;;11.10;99.90;;;;;;5050676;28;20025;-80
2023/11/21 09:34:23;;;;;;;0.10;0.10;;;11.10;99.90;;;;;;5052842;28;20039;-80
2023/11/21 09:36:49;;;;;;;0.10;0.10;;;11.20;99.90;;;;;;5050785;28;20037;-80
2023/11/21 09:39:15;;;;;;;0.00;0.00;;;11.00;99.90;;;;;;5049683;28;20117;-80
2023/11/21 09:41:46;;;;;;;0.00;0.00;;;11.10;99.90;;;;;;5049311;28;20105;-81
2023/11/21 09:44:14;;;;;;;0.00;0.00;;;11.20;99.90;;;;;;5049921;28;20090;-81
2023/11/21 09:46:42;;;;;;;0.10;0.10;;;11.30;99.90;;;;;;5050729;28;20047;-80
2023/11/21 09:49:12;;;;;;;0.40;0.40;;;11.20;99.90;;;;;;5049427;28;20719;-80
2023/11/21 09:51:40;;;;;;;0.08;0.08;;;11.40;99.90;;;;;;5053586;28;20454;-81
2023/11/21 09:54:08;;;;;;;0.03;0.03;;;11.40;99.90;;;;;;5057128;28;20544;-80
2023/11/21 09:56:35;;;;;;;0.00;0.00;;;11.40;99.90;;;;;;5048698;28;20029;-80
2023/11/21 09:59:06;;;;;;;0.00;0.00;;;11.40;99.90;;;;;;5044206;28;20168;-80
2023/11/21 10:01:33;;;;;;;0.08;0.08;;;11.30;99.90;;;;;;5050379;28;20816;-79
2023/11/21 10:03:59;;;;;;;;;;;11.30;99.90;;;;;;5049566;28;20028;-80
2023/11/21 10:06:26;;;;;;;0.00;0.00;;;11.30;99.90;;;;;;5050733;28;19916;-80
2023/11/21 10:08:59;;;;;;;0.10;0.10;;;11.20;99.90;;;;;;5048994;28;20033;-80
2023/11/21 10:11:25;;;;;;;0.50;0.50;;;11.20;99.90;;;;;;5048299;28;20032;-80
2023/11/21 10:13:54;;;;;;;;;;;11.20;99.90;;;;;;5050255;28;20028;-82
2023/11/21 10:16:22;;;;;;;0.00;0.00;;;11.20;99.90;;;;;;5049644;28;20053;-80
2023/11/21 10:18:55;;;;;;;0.10;0.10;;;11.40;99.90;;;;;;5048212;28;20528;-80
2023/11/21 10:21:21;;;;;;;0.10;0.10;;;11.30;99.90;;;;;;5049841;28;20036;-80
2023/11/21 10:23:47;;;;;;;0.00;0.00;;;11.30;99.90;;;;;;5048489;28;20099;-80
2023/11/21 10:26:16;;;;;;;0.00;0.00;;;11.30;99.90;;;;;;5048500;28;20560;-80
2023/11/21 10:28:56;;;;;;;0.10;0.10;;;11.20;99.90;;;;;;5049818;28;20036;-80
2023/11/21 10:31:24;;;;;;;0.00;0.00;;;11.20;99.90;;;;;;5043778;28;20013;-80
2023/11/21 10:33:50;;;;;;;0.10;0.10;;;11.20;99.90;;;;;;5047857;28;20032;-80
2023/11/21 10:36:26;;;;;;;0.08;0.08;;;11.20;99.90;;;;;;5048085;28;20120;-80
2023/11/21 10:38:53;;;;;;;0.10;0.10;;;11.20;99.90;;;;;;5049716;28;20879;-80
2023/11/21 10:41:19;;;;;;;0.10;0.10;;;11.10;99.90;;;;;;5049159;28;20017;-80
2023/11/21 10:43:44;;;;;;;0.10;0.10;;;11.10;99.90;;;;;;5048653;28;20090;-79
2023/11/21 10:46:10;;;;;;;0.00;0.00;;;11.20;99.90;;;;;;5048002;28;20074;-79
2023/11/21 10:48:37;;;;;;;0.00;0.00;;;11.30;99.90;;;;;;5049330;28;20485;-80
2023/11/21 10:51:10;;;;;;;0.10;0.10;;;11.30;99.90;;;;;;5049052;28;20100;-79
2023/11/21 10:53:43;;;;;;;0.03;0.03;;;11.50;99.90;;;;;;5059131;28;20041;-79
2023/11/21 10:56:17;;;;;;;0.10;0.10;;;11.50;99.90;;;;;;5047467;28;20036;-79
2023/11/21 10:58:43;;;;;;;0.00;0.00;;;11.50;99.90;;;;;;5043882;28;20052;-79
2023/11/21 11:01:14;;;;;;;0.00;0.00;;;11.50;99.90;;;;;;5048939;28;20009;-79
2023/11/21 11:03:41;;;;;;;0.05;0.05;;;11.70;99.90;;;;;;5047824;28;20110;-80
2023/11/21 11:06:11;;;;;;;0.00;0.00;;;11.70;99.90;;;;;;5049132;28;20049;-80
2023/11/21 11:08:37;;;;;;;0.10;0.10;;;12.10;99.90;;;;;;5048473;28;20035;-80
2023/11/21 11:11:09;;;;;;;0.00;0.00;;;12.10;99.90;;;;;;5047337;28;20013;-79
2023/11/21 11:13:37;;;;;;;0.10;0.10;;;12.10;99.90;;;;;;5047719;28;20041;-80
2023/11/21 11:16:06;;;;;;;0.00;0.00;;;12.00;99.90;;;;;;5049149;28;20028;-80
2023/11/21 11:18:33;;;;;;;0.08;0.08;;;11.90;99.90;;;;;;5047782;28;20107;-79
2023/11/21 11:21:20;;;;;;;0.00;0.00;;;12.10;99.90;;;;;;5045689;28;20043;-80
2023/11/21 11:24:08;;;;;;;0.00;0.00;;;12.10;99.90;;;;;;5048338;28;20523;-80
2023/11/21 11:26:57;;;;;;;0.10;0.10;;;12.00;99.90;;;;;;5043467;28;20033;-80
2023/11/21 11:29:31;;;;;;;0.00;0.00;;;12.20;99.90;;;;;;5046945;28;20037;-80
2023/11/21 11:32:20;;;;;;;0.10;0.10;;;12.10;99.90;;;;;;5048441;28;20535;-79
2023/11/21 11:35:10;;;;;;;0.10;0.10;;;11.90;99.90;;;;;;5044709;28;20033;-79
2023/11/21 11:37:36;;;;;;;0.00;0.00;;;11.60;99.90;;;;;;5046676;28;20033;-80
2023/11/21 11:40:06;;;;;;;0.00;0.00;;;11.50;99.90;;;;;;5048933;28;20040;-80
2023/11/21 11:42:32;;;;;;;0.00;0.00;;;11.50;99.90;;;;;;5047810;28;20115;-80
2023/11/21 11:44:58;;;;;;;0.10;0.10;;;11.40;99.90;;;;;;5048818;28;20020;-79
2023/11/21 11:47:32;;;;;;;0.07;0.07;;;11.60;99.90;;;;;;5047211;28;20033;-80
2023/11/21 11:50:17;;;;;;;0.10;0.10;;;11.50;99.90;;;;;;5047980;28;20183;-79
2023/11/21 11:52:48;;;;;;;0.08;0.08;;;11.50;99.90;;;;;;5056901;28;20711;-78
2023/11/21 11:55:18;;;;;;;0.10;0.10;;;11.80;99.90;;;;;;5048586;28;20591;-79
2023/11/21 11:57:50;;;;;;;0.00;0.00;;;12.20;99.90;;;;;;5042497;28;20033;-79
2023/11/21 12:00:20;;;;;;;0.10;0.10;;;12.40;99.90;;;;;;5046455;28;20032;-79
2023/11/21 12:02:49;;;;;;;0.00;0.00;;;12.50;99.90;;;;;;5046284;28;20528;-80
2023/11/21 12:05:18;;;;;;;0.00;0.00;;;12.40;99.90;;;;;;5046909;28;20053;-80
2023/11/21 12:07:53;;;;;;;0.00;0.00;;;12.40;99.90;;;;;;5047951;28;20029;-80
2023/11/21 12:10:26;;;;;;;0.10;0.10;;;12.40;99.90;;;;;;5047670;28;20029;-81
2023/11/21 12:12:55;;;;;;;0.10;0.10;;;12.50;99.90;;;;;;5047111;28;20060;-79
2023/11/21 12:15:21;;;;;;;0.10;0.10;;;12.40;99.90;;;;;;5046796;28;20060;-79
2023/11/21 12:17:48;;;;;;;0.00;0.00;;;12.00;99.90;;;;;;5048029;28;20033;-79
2023/11/21 12:20:18;;;;;;;0.00;0.00;;;12.10;99.90;;;;;;5043067;28;20029;-80
2023/11/21 12:22:47;;;;;;;0.98;0.55;;;12.20;99.90;;;;;;5034816;28;20033;-79
2023/11/21 12:25:15;;;;;;;0.10;0.10;;;12.10;99.90;;;;;;5045850;28;21057;-79
2023/11/21 12:27:43;;;;;;;0.03;0.03;;;12.30;99.90;;;;;;5043512;28;20033;-80
2023/11/21 12:30:13;;;;;;;0.10;0.10;;;12.40;99.90;;;;;;5042875;28;20060;-79
2023/11/21 12:32:40;;;;;;;0.10;0.10;;;12.60;99.90;;;;;;5042309;28;20033;-79
2023/11/21 12:35:06;;;;;;;0.00;0.00;;;12.40;99.90;;;;;;5043698;28;20028;-79
2023/11/21 12:37:32;;;;;;;0.00;0.00;;;12.40;99.90;;;;;;5041713;28;20807;-80
2023/11/21 12:39:58;;;;;;;0.10;0.10;;;12.20;99.90;;;;;;5040741;28;20074;-79
2023/11/21 12:42:24;;;;;;;0.00;0.00;;;12.30;99.90;;;;;;5043779;28;20296;-81
2023/11/21 12:45:17;;;;;;;0.10;0.10;;;12.20;99.90;;;;;;5045158;28;20607;-81
2023/11/21 12:47:49;;;;;;;0.00;0.00;;;12.40;99.90;;;;;;5046653;28;20025;-80
2023/11/21 12:50:15;;;;;;;0.10;0.10;;;12.40;99.90;;;;;;5035215;28;20056;-79
2023/11/21 12:52:46;;;;;;;0.00;0.00;;;12.50;99.90;;;;;;5056877;28;20105;-80
2023/11/21 12:55:16;;;;;;;0.00;0.00;;;12.70;99.90;;;;;;5035488;28;20033;-80
2023/11/21 12:57:49;;;;;;;0.10;0.10;;;12.40;99.90;;;;;;5037812;28;20591;-80